Time;durP1;ratioP1;P1;durP2;ratioP2;P2;SDS_P1;SDS_P2;PMS_P1;PMS_P2;Temp;Humidity;BMP_temperature;BMP_pressure;BME280_temperature;BME280_humidity;BME280_pressure;Samples;Min_cycle;Max_cycle;Signal;HPM_P1;HPM_P2
2023/08/18 00:02:24;;;;;;;0.00;0.00;;;;;;;19.08;71.58;100373.94;5048815;28;20041;-75
2023/08/18 00:04:49;;;;;;;0.00;0.00;;;;;;;19.06;71.66;100369.88;5032516;28;20506;-78
2023/08/18 00:07:15;;;;;;;0.00;0.00;;;;;;;19.10;72.01;100368.06;5035697;28;20084;-77
2023/08/18 00:09:43;;;;;;;0.00;0.00;;;;;;;19.16;71.53;100355.69;5042114;28;20111;-73
2023/08/18 00:12:09;;;;;;;0.00;0.00;;;;;;;19.11;72.24;100341.97;5023073;28;20092;-74
2023/08/18 00:14:34;;;;;;;0.00;0.00;;;;;;;19.14;72.24;100346.88;5032144;28;20111;-77
2023/08/18 00:17:00;;;;;;;0.00;0.00;;;;;;;19.12;72.89;100340.84;5041248;28;20429;-76
2023/08/18 00:19:25;;;;;;;0.00;0.00;;;;;;;19.08;72.91;100342.63;5030744;28;20033;-78
2023/08/18 00:21:51;;;;;;;0.00;0.00;;;;;;;19.05;72.86;100329.44;5029901;28;20055;-77
2023/08/18 00:24:16;;;;;;;0.00;0.00;;;;;;;19.02;73.55;100328.13;5029384;28;20112;-78
2023/08/18 00:26:42;;;;;;;0.00;0.00;;;;;;;19.00;73.60;100311.81;5047028;28;20486;-76
2023/08/18 00:29:07;;;;;;;0.00;0.00;;;;;;;19.00;74.22;100309.06;5033930;28;20100;-78
2023/08/18 00:31:32;;;;;;;0.00;0.00;;;;;;;18.96;74.30;100313.59;5065397;28;20471;-77
2023/08/18 00:33:58;;;;;;;0.00;0.00;;;;;;;18.93;74.62;100319.00;5051450;28;20064;-76
2023/08/18 00:36:25;;;;;;;0.00;0.00;;;;;;;18.83;75.13;100311.78;5023587;28;20595;-76
2023/08/18 00:38:50;;;;;;;0.00;0.00;;;;;;;18.81;75.31;100316.84;5050696;28;20028;-76
2023/08/18 00:41:16;;;;;;;0.00;0.00;;;;;;;18.74;76.28;100311.78;5020474;28;20021;-77
2023/08/18 00:43:42;;;;;;;0.00;0.00;;;;;;;18.69;76.22;100308.34;5017204;28;20087;-75
2023/08/18 00:46:09;;;;;;;0.00;0.00;;;;;;;18.65;76.92;100297.91;5062665;28;20107;-77
2023/08/18 00:48:36;;;;;;;0.00;0.00;;;;;;;18.62;77.32;100293.03;5057634;28;20104;-77
2023/08/18 00:51:01;;;;;;;0.00;0.00;;;;;;;18.65;77.61;100292.38;5040953;28;20071;-77
2023/08/18 00:53:30;;;;;;;0.00;0.00;;;;;;;18.67;77.73;100295.66;5030449;28;20684;-76
2023/08/18 00:55:55;;;;;;;0.00;0.00;;;;;;;18.62;77.84;100281.94;5030545;28;20025;-76
2023/08/18 00:58:21;;;;;;;0.00;0.00;;;;;;;18.62;77.51;100293.03;5014800;28;20479;-78
2023/08/18 01:00:49;;;;;;;0.00;0.00;;;;;;;18.60;78.27;100275.94;5011815;28;20124;-77
2023/08/18 01:03:14;;;;;;;0.00;0.00;;;;;;;18.62;77.96;100270.06;5046147;28;20091;-77
2023/08/18 01:05:40;;;;;;;0.00;0.00;;;;;;;18.63;78.11;100266.13;5033072;28;20029;-78
2023/08/18 01:08:05;;;;;;;0.00;0.00;;;;;;;18.66;78.20;100266.31;4997733;28;20025;-78
2023/08/18 01:10:36;;;;;;;0.00;0.00;;;;;;;18.70;78.54;100265.66;5025430;28;20084;-75
2023/08/18 01:13:14;;;;;;;0.00;0.00;;;;;;;18.67;78.47;100256.88;5024262;28;20111;-77
2023/08/18 01:15:43;;;;;;;0.00;0.00;;;;;;;18.57;78.77;100235.03;5027932;28;20056;-76
2023/08/18 01:18:11;;;;;;;0.00;0.00;;;;;;;18.54;78.54;100241.22;5047364;28;20068;-76
2023/08/18 01:20:36;;;;;;;0.00;0.00;;;;;;;18.52;79.05;100248.22;5045326;28;20781;-76
2023/08/18 01:23:03;;;;;;;0.00;0.00;;;;;;;18.50;78.86;100240.25;5053488;28;20053;-76
2023/08/18 01:25:30;;;;;;;0.00;0.00;;;;;;;18.50;79.16;100234.72;5078967;28;20133;-77
2023/08/18 01:27:58;;;;;;;0.00;0.00;;;;;;;18.52;79.60;100224.13;5078457;28;20105;-76
2023/08/18 01:30:30;;;;;;;0.00;0.00;;;;;;;18.54;79.25;100224.59;5064325;28;20497;-77
2023/08/18 01:33:00;;;;;;;0.00;0.00;;;;;;;18.50;79.34;100212.56;5049817;28;20032;-75
2023/08/18 01:35:28;;;;;;;0.00;0.00;;;;;;;18.39;80.18;100214.00;5054029;28;20074;-77
2023/08/18 01:37:55;;;;;;;0.00;0.00;;;;;;;18.36;80.56;100206.34;5049322;28;20028;-76
2023/08/18 01:40:23;;;;;;;0.00;0.00;;;;;;;18.36;80.83;100198.06;5075206;28;20032;-77
2023/08/18 01:42:48;;;;;;;0.00;0.00;;;;;;;18.29;80.76;100196.56;5072974;28;20052;-77
2023/08/18 01:45:15;;;;;;;0.00;0.00;;;;;;;18.23;80.88;100203.41;5068333;28;21254;-76
2023/08/18 01:47:41;;;;;;;0.00;0.00;;;;;;;18.18;81.24;100194.44;5054560;28;20398;-76
2023/08/18 01:50:06;;;;;;;0.00;0.00;;;;;;;18.06;81.77;100181.22;5071816;28;20032;-78
2023/08/18 01:52:32;;;;;;;0.00;0.00;;;;;;;18.07;81.85;100189.19;5064798;28;20385;-76
2023/08/18 01:54:57;;;;;;;0.00;0.00;;;;;;;18.08;82.20;100190.84;5071967;28;20031;-76
2023/08/18 01:57:23;;;;;;;0.00;0.00;;;;;;;18.13;81.77;100189.88;5012057;28;20059;-76
2023/08/18 01:59:48;;;;;;;0.00;0.00;;;;;;;18.17;81.41;100199.16;5083757;28;20021;-77
2023/08/18 02:02:13;;;;;;;0.00;0.00;;;;;;;18.22;82.05;100198.19;5081839;28;20021;-77
2023/08/18 02:04:39;;;;;;;0.00;0.00;;;;;;;18.22;81.88;100193.44;5085525;28;20060;-76
2023/08/18 02:07:04;;;;;;;0.00;0.00;;;;;;;18.15;81.77;100184.84;5087224;28;20035;-76
2023/08/18 02:09:30;;;;;;;0.00;0.00;;;;;;;18.19;82.14;100194.09;5025525;28;20078;-77
2023/08/18 02:11:55;;;;;;;0.00;0.00;;;;;;;18.13;82.22;100182.38;5055677;28;20028;-77
2023/08/18 02:14:21;;;;;;;0.00;0.00;;;;;;;18.04;82.40;100164.16;5022110;28;20028;-76
2023/08/18 02:16:48;;;;;;;0.00;0.00;;;;;;;18.05;82.71;100163.00;5071453;28;20031;-76
2023/08/18 02:19:13;;;;;;;0.00;0.00;;;;;;;18.05;83.27;100174.88;5070032;28;20578;-76
2023/08/18 02:21:38;;;;;;;0.00;0.00;;;;;;;18.04;82.97;100175.22;5033202;28;20056;-77
2023/08/18 02:24:04;;;;;;;0.00;0.00;;;;;;;18.09;82.92;100180.56;5042303;28;20063;-77
2023/08/18 02:26:30;;;;;;;0.00;0.00;;;;;;;18.09;82.56;100169.50;5085329;28;20024;-77
2023/08/18 02:28:55;;;;;;;0.00;0.00;;;;;;;18.05;83.08;100163.00;5070648;28;20043;-77
2023/08/18 02:31:20;;;;;;;0.00;0.00;;;;;;;18.12;83.07;100174.38;5053686;28;20028;-77
2023/08/18 02:33:46;;;;;;;0.00;0.00;;;;;;;18.15;82.75;100162.69;5065578;28;20028;-74
2023/08/18 02:36:12;;;;;;;0.00;0.00;;;;;;;18.11;82.76;100161.72;5065426;28;20045;-76
2023/08/18 02:38:38;;;;;;;0.00;0.00;;;;;;;18.03;83.65;100159.75;5056239;28;20036;-76
2023/08/18 02:41:04;;;;;;;0.00;0.00;;;;;;;17.97;83.66;100156.31;5053267;28;20467;-77
2023/08/18 02:43:29;;;;;;;0.00;0.00;;;;;;;17.95;83.92;100151.09;5068939;28;20109;-76
2023/08/18 02:46:00;;;;;;;0.00;0.00;;;;;;;18.03;84.01;100151.44;5069213;28;20348;-76
2023/08/18 02:48:27;;;;;;;0.00;0.00;;;;;;;18.04;84.05;100153.06;5069873;28;20039;-77
2023/08/18 02:51:02;;;;;;;0.00;0.00;;;;;;;18.06;84.48;100162.69;5047145;28;20413;-76
2023/08/18 02:53:28;;;;;;;0.00;0.00;;;;;;;18.08;83.77;100163.16;5050083;28;20028;-76
2023/08/18 02:55:54;;;;;;;0.00;0.00;;;;;;;18.13;83.76;100162.19;5068106;28;20031;-75
2023/08/18 02:58:20;;;;;;;0.00;0.00;;;;;;;18.20;83.43;100164.50;5070398;28;20115;-75
2023/08/18 03:00:45;;;;;;;0.00;0.00;;;;;;;18.19;84.01;100158.13;5070532;28;20020;-76
2023/08/18 03:03:10;;;;;;;0.00;0.00;;;;;;;18.21;83.98;100150.34;5068908;28;20027;-75
2023/08/18 03:05:37;;;;;;;0.00;0.00;;;;;;;18.26;84.26;100163.19;5067907;28;20356;-75
2023/08/18 03:08:03;;;;;;;0.00;0.00;;;;;;;18.35;83.39;100160.44;5051620;28;20055;-75
2023/08/18 03:10:28;;;;;;;0.00;0.00;;;;;;;18.38;83.66;100159.78;5051415;28;20170;-75
2023/08/18 03:12:54;;;;;;;0.00;0.00;;;;;;;18.40;83.65;100155.56;5051908;28;20107;-74
2023/08/18 03:15:20;;;;;;;0.00;0.00;;;;;;;18.45;83.85;100168.41;5070874;28;20040;-75
2023/08/18 03:17:46;;;;;;;0.00;0.00;;;;;;;18.50;83.45;100157.19;5052198;28;20031;-76
2023/08/18 03:20:11;;;;;;;0.00;0.00;;;;;;;18.53;83.50;100162.06;5053641;28;20032;-76
2023/08/18 03:22:37;;;;;;;0.00;0.00;;;;;;;18.57;83.79;100163.03;5036212;28;20021;-75
2023/08/18 03:25:03;;;;;;;0.00;0.00;;;;;;;18.57;83.21;100151.94;5056425;28;20025;-76
2023/08/18 03:27:29;;;;;;;0.00;0.00;;;;;;;18.61;83.34;100141.84;5052783;28;20501;-75
2023/08/18 03:29:58;;;;;;;0.00;0.00;;;;;;;18.61;83.48;100141.84;5071231;28;20029;-77
2023/08/18 03:32:23;;;;;;;0.00;0.00;;;;;;;18.65;83.30;100136.50;5048600;28;20028;-76
2023/08/18 03:34:48;;;;;;;0.00;0.00;;;;;;;18.66;82.69;100135.31;5068620;28;20036;-75
2023/08/18 03:37:14;;;;;;;0.00;0.00;;;;;;;18.67;82.84;100135.03;5069078;28;20528;-75
2023/08/18 03:39:39;;;;;;;0.00;0.00;;;;;;;18.67;82.48;100129.50;5083695;28;20487;-75
2023/08/18 03:42:05;;;;;;;0.00;0.00;;;;;;;18.72;82.62;100138.75;5046995;28;20044;-74
2023/08/18 03:44:30;;;;;;;0.00;0.00;;;;;;;18.69;82.90;100139.41;5062510;28;20033;-76
2023/08/18 03:46:56;;;;;;;0.00;0.00;;;;;;;18.71;82.59;100150.97;5052806;28;20036;-75
2023/08/18 03:49:22;;;;;;;0.00;0.00;;;;;;;18.68;83.05;100146.91;5034915;28;20032;-76
2023/08/18 03:51:47;;;;;;;0.00;0.00;;;;;;;18.66;83.32;100138.94;5053919;28;20027;-76
2023/08/18 03:54:13;;;;;;;0.00;0.00;;;;;;;18.64;82.91;100143.16;5063541;28;20029;-76
2023/08/18 03:56:38;;;;;;;0.00;0.00;;;;;;;18.60;82.93;100144.94;5029043;28;20483;-76
2023/08/18 03:59:04;;;;;;;0.00;0.00;;;;;;;18.58;83.21;100136.97;5067994;28;20113;-74
2023/08/18 04:01:29;;;;;;;0.00;0.00;;;;;;;18.60;83.14;100122.78;5030794;28;20032;-75
2023/08/18 04:03:58;;;;;;;0.00;0.00;;;;;;;18.55;83.00;100123.78;5047030;28;20025;-75
2023/08/18 04:06:23;;;;;;;0.00;0.00;;;;;;;18.56;83.08;100130.97;5071740;28;20361;-75
2023/08/18 04:09:15;;;;;;;0.00;0.00;;;;;;;18.54;83.77;100122.16;5071871;28;20024;-75
2023/08/18 04:11:40;;;;;;;0.00;0.00;;;;;;;18.54;83.59;100119.38;5072323;28;20613;-76
2023/08/18 04:14:06;;;;;;;0.00;0.00;;;;;;;18.48;83.67;100081.94;5051667;28;20131;-77
2023/08/18 04:16:31;;;;;;;0.00;0.00;;;;;;;18.59;83.63;100088.75;5070647;28;20040;-78
2023/08/18 04:18:57;;;;;;;0.00;0.00;;;;;;;18.66;83.26;100093.78;5084761;28;20757;-79
2023/08/18 04:21:24;;;;;;;0.00;0.00;;;;;;;18.67;83.17;100096.25;5035505;28;20025;-75
2023/08/18 04:23:49;;;;;;;0.00;0.00;;;;;;;18.64;83.49;100080.28;5046038;28;20032;-78
2023/08/18 04:26:15;;;;;;;0.00;0.00;;;;;;;18.64;83.36;100074.72;5060117;28;20394;-74
2023/08/18 04:28:40;;;;;;;0.00;0.00;;;;;;;18.64;83.21;100074.72;5051166;28;20516;-76
2023/08/18 04:31:06;;;;;;;0.00;0.00;;;;;;;18.74;83.52;100076.34;5071080;28;20031;-76
2023/08/18 04:33:31;;;;;;;0.00;0.00;;;;;;;18.69;82.92;100072.94;5066553;28;20033;-77
2023/08/18 04:35:57;;;;;;;0.00;0.00;;;;;;;18.73;83.48;100076.69;5078486;28;20071;-76
2023/08/18 04:38:23;;;;;;;0.00;0.00;;;;;;;18.74;83.41;100070.00;5087210;28;20376;-76
2023/08/18 04:40:58;;;;;;;0.00;0.00;;;;;;;18.76;83.27;100076.03;5054185;28;20005;-77
2023/08/18 04:43:25;;;;;;;0.00;0.00;;;;;;;18.77;83.56;100069.34;5073491;28;20107;-77
2023/08/18 04:45:51;;;;;;;0.00;0.00;;;;;;;18.76;83.41;100070.47;5071546;28;20466;-78
2023/08/18 04:48:16;;;;;;;0.00;0.00;;;;;;;18.73;83.36;100071.13;5069722;28;20106;-77
2023/08/18 04:50:42;;;;;;;0.00;0.00;;;;;;;18.71;83.59;100078.97;5036558;28;20067;-78
2023/08/18 04:53:07;;;;;;;0.00;0.00;;;;;;;18.70;83.58;100105.03;5036290;28;20103;-79
2023/08/18 04:55:33;;;;;;;0.00;0.00;;;;;;;18.61;83.81;100108.63;5048908;28;20029;-78
2023/08/18 04:57:59;;;;;;;0.00;0.00;;;;;;;18.58;84.14;100106.50;5068570;28;20449;-78
2023/08/18 05:00:24;;;;;;;0.00;0.00;;;;;;;18.53;84.83;100103.09;5068232;28;20028;-74
2023/08/18 05:02:50;;;;;;;0.00;0.00;;;;;;;18.44;84.85;100108.63;5055781;28;20029;-76
2023/08/18 05:05:15;;;;;;;0.00;0.00;;;;;;;18.36;85.11;100129.66;5053957;28;20028;-77
2023/08/18 05:07:41;;;;;;;0.00;0.00;;;;;;;18.22;85.94;100118.72;5038589;28;20035;-75
2023/08/18 05:10:07;;;;;;;0.00;0.00;;;;;;;18.22;86.31;100113.19;5037492;28;20036;-78
2023/08/18 05:12:32;;;;;;;0.00;0.00;;;;;;;18.20;86.42;100109.16;5043151;28;20127;-76
2023/08/18 05:14:57;;;;;;;0.00;0.00;;;;;;;18.22;86.61;100098.56;5021423;28;20060;-77
2023/08/18 05:17:23;;;;;;;0.00;0.00;;;;;;;18.26;86.68;100097.56;5077956;28;20034;-78
2023/08/18 05:19:48;;;;;;;0.00;0.00;;;;;;;18.28;86.74;100106.38;5057370;28;20021;-77
2023/08/18 05:22:14;;;;;;;0.00;0.00;;;;;;;18.33;86.99;100113.72;5072560;28;20081;-76
2023/08/18 05:24:39;;;;;;;0.00;0.00;;;;;;;18.36;86.74;100115.00;5042718;28;20033;-78
2023/08/18 05:27:04;;;;;;;0.00;0.00;;;;;;;18.35;86.85;100124.44;5066036;28;20395;-77
2023/08/18 05:29:30;;;;;;;0.00;0.00;;;;;;;18.36;87.30;100134.38;5085276;28;20031;-75
2023/08/18 05:31:55;;;;;;;0.00;0.00;;;;;;;18.35;86.74;100135.53;5088149;28;20407;-76
2023/08/18 05:34:21;;;;;;;0.00;0.00;;;;;;;18.26;87.28;100132.75;5073378;28;20032;-75
2023/08/18 05:36:47;;;;;;;0.00;0.00;;;;;;;18.29;87.43;100124.59;5029248;28;20025;-75
2023/08/18 05:39:12;;;;;;;0.00;0.00;;;;;;;18.35;87.34;100121.69;5038521;28;20043;-75
2023/08/18 05:41:37;;;;;;;0.00;0.00;;;;;;;18.36;87.10;100098.41;5056143;28;20888;-77
2023/08/18 05:44:03;;;;;;;0.00;0.00;;;;;;;18.43;87.41;100098.72;5015873;28;20053;-76
2023/08/18 05:46:30;;;;;;;0.00;0.00;;;;;;;18.48;87.42;100085.50;4998382;28;20044;-77
2023/08/18 05:48:55;;;;;;;0.00;0.00;;;;;;;18.50;87.08;100074.13;5020985;28;20030;-77
2023/08/18 05:51:21;;;;;;;0.00;0.00;;;;;;;18.51;87.26;100075.75;5026625;28;20717;-76
2023/08/18 05:53:47;;;;;;;0.00;0.00;;;;;;;18.52;87.07;100094.00;5042765;28;20028;-77
2023/08/18 05:56:19;;;;;;;0.00;0.00;;;;;;;18.53;87.66;100090.09;5013843;28;20084;-77
2023/08/18 05:58:45;;;;;;;0.00;0.00;;;;;;;18.50;87.76;100093.50;5014058;28;20028;-76
2023/08/18 06:01:10;;;;;;;0.00;0.00;;;;;;;18.56;88.09;100103.28;5043532;28;20379;-77
2023/08/18 06:03:36;;;;;;;0.00;0.00;;;;;;;18.53;87.79;100090.09;5014300;28;20045;-76
2023/08/18 06:06:01;;;;;;;0.00;0.00;;;;;;;18.60;87.90;100086.81;5045585;28;20482;-76
2023/08/18 06:08:26;;;;;;;0.00;0.00;;;;;;;18.61;87.62;100089.25;5023254;28;20032;-76
2023/08/18 06:10:52;;;;;;;0.00;0.00;;;;;;;18.66;87.89;100097.38;5009517;28;20045;-76
2023/08/18 06:13:18;;;;;;;0.00;0.00;;;;;;;18.64;87.54;100091.34;5027281;28;20037;-75
2023/08/18 06:15:43;;;;;;;0.00;0.00;;;;;;;18.70;87.79;100105.03;5013807;28;20018;-76
2023/08/18 06:18:09;;;;;;;0.00;0.00;;;;;;;18.70;87.97;100105.84;5029307;28;20033;-76
2023/08/18 06:20:37;;;;;;;0.00;0.00;;;;;;;18.69;87.77;100081.25;5014430;28;20372;-76
2023/08/18 06:23:03;;;;;;;0.00;0.00;;;;;;;18.67;87.46;100087.13;5031627;28;20040;-76
2023/08/18 06:25:28;;;;;;;0.00;0.00;;;;;;;18.72;87.25;100086.13;5014247;28;20017;-77
2023/08/18 06:27:54;;;;;;;0.00;0.00;;;;;;;18.77;87.80;100084.00;5048247;28;20052;-76
2023/08/18 06:30:21;;;;;;;0.00;0.00;;;;;;;18.80;88.23;100077.00;5029423;28;20029;-76
2023/08/18 06:32:47;;;;;;;0.00;0.00;;;;;;;18.75;87.44;100066.06;4995289;28;20036;-77
2023/08/18 06:35:12;;;;;;;0.00;0.00;;;;;;;18.80;87.17;100094.41;5011153;28;20022;-76
2023/08/18 06:37:38;;;;;;;0.00;0.00;;;;;;;18.82;87.49;100091.31;4997978;28;20032;-76
2023/08/18 06:40:07;;;;;;;0.00;0.00;;;;;;;18.82;87.40;100086.59;5006042;28;20495;-76
2023/08/18 06:42:32;;;;;;;0.00;0.00;;;;;;;18.83;87.17;100082.66;4998418;28;20053;-76
2023/08/18 06:45:00;;;;;;;0.00;0.00;;;;;;;18.80;87.58;100088.06;5044111;28;20487;-76
2023/08/18 06:47:25;;;;;;;0.00;0.00;;;;;;;18.83;87.25;100092.94;5051304;28;20025;-77
2023/08/18 06:49:50;;;;;;;0.00;0.00;;;;;;;18.85;87.80;100104.50;5031933;28;20033;-78
2023/08/18 06:52:18;;;;;;;0.00;0.00;;;;;;;18.76;87.17;100076.84;5016875;28;20575;-78
2023/08/18 06:54:46;;;;;;;0.00;0.00;;;;;;;18.77;87.27;100078.47;5050618;28;20121;-78
2023/08/18 06:57:22;;;;;;;0.00;0.00;;;;;;;18.79;87.53;100080.91;5032565;28;20033;-76
2023/08/18 06:59:47;;;;;;;0.00;0.00;;;;;;;18.81;87.22;100089.72;5033815;28;20090;-77
2023/08/18 07:02:15;;;;;;;0.00;0.00;;;;;;;18.81;88.08;100090.50;5062979;28;20018;-76
2023/08/18 07:04:40;;;;;;;0.00;0.00;;;;;;;18.87;87.93;100096.72;5008268;28;20124;-77
2023/08/18 07:07:06;;;;;;;0.00;0.00;;;;;;;18.93;87.31;100097.38;4999576;28;20021;-76
2023/08/18 07:09:31;;;;;;;0.00;0.00;;;;;;;18.94;87.51;100083.19;5050476;28;20040;-76
2023/08/18 07:11:57;;;;;;;0.00;0.00;;;;;;;19.07;87.01;100086.06;5056284;28;20041;-74
2023/08/18 07:14:22;;;;;;;0.00;0.00;;;;;;;19.01;86.47;100089.03;5049791;28;20025;-76
2023/08/18 07:16:47;;;;;;;0.00;0.00;;;;;;;19.02;86.60;100087.84;5027068;28;20029;-75
2023/08/18 07:19:13;;;;;;;0.00;0.00;;;;;;;18.97;86.70;100088.06;5046705;28;20463;-76
2023/08/18 07:21:38;;;;;;;0.00;0.00;;;;;;;18.96;86.42;100089.19;5023625;28;20123;-76
2023/08/18 07:24:04;;;;;;;0.00;0.00;;;;;;;18.90;87.13;100098.81;5005914;28;20025;-76
2023/08/18 07:26:29;;;;;;;0.00;0.00;;;;;;;18.86;87.00;100092.31;5046218;28;20017;-74
2023/08/18 07:28:57;;;;;;;0.00;0.00;;;;;;;18.88;87.25;100103.06;5048791;28;20027;-75
2023/08/18 07:31:23;;;;;;;0.00;0.00;;;;;;;18.82;87.54;100094.06;5048690;28;20037;-76
2023/08/18 07:33:48;;;;;;;0.00;0.00;;;;;;;18.80;87.72;100099.16;5031533;28;20029;-75
2023/08/18 07:36:14;;;;;;;0.00;0.00;;;;;;;18.77;88.05;100088.72;5025802;28;20032;-74
2023/08/18 07:38:39;;;;;;;0.00;0.00;;;;;;;18.74;88.33;100106.00;5046393;28;20033;-75
2023/08/18 07:41:07;;;;;;;0.00;0.00;;;;;;;18.75;87.86;100085.47;5032623;28;20040;-76
2023/08/18 07:43:32;;;;;;;0.00;0.00;;;;;;;18.75;87.91;100094.59;5060008;28;22509;-76
2023/08/18 07:45:58;;;;;;;0.00;0.00;;;;;;;18.72;88.67;100088.88;5030722;28;20465;-77
2023/08/18 07:48:25;;;;;;;0.00;0.00;;;;;;;18.73;88.48;100079.44;5035220;28;20049;-77
2023/08/18 07:50:50;;;;;;;0.00;0.00;;;;;;;18.81;88.69;100089.72;5032050;28;20467;-76
2023/08/18 07:53:18;;;;;;;0.00;0.00;;;;;;;18.86;88.45;100086.78;5047735;28;20112;-78
2023/08/18 07:55:43;;;;;;;0.00;0.00;;;;;;;18.92;88.23;100082.69;5014023;28;20036;-78
2023/08/18 07:58:11;;;;;;;0.00;0.00;;;;;;;18.95;88.30;100089.53;5062175;28;20033;-75
2023/08/18 08:00:38;;;;;;;0.00;0.00;;;;;;;18.93;88.16;100084.31;5032146;28;20022;-76
2023/08/18 08:03:03;;;;;;;0.00;0.00;;;;;;;18.96;88.13;100072.56;5020893;28;20033;-78
2023/08/18 08:05:29;;;;;;;0.00;0.00;;;;;;;19.05;88.17;100071.72;5062312;28;20022;-76
2023/08/18 08:07:54;;;;;;;0.00;0.00;;;;;;;19.08;87.68;100063.56;5033632;28;20033;-77
2023/08/18 08:10:20;;;;;;;0.00;0.00;;;;;;;19.20;87.31;100068.38;5048545;28;20396;-77
2023/08/18 08:12:47;;;;;;;0.00;0.00;;;;;;;19.17;87.13;100063.50;5030164;28;20057;-79
2023/08/18 08:15:13;;;;;;;0.00;0.00;;;;;;;19.20;86.99;100073.94;5041513;28;20052;-78
2023/08/18 08:17:38;;;;;;;0.00;0.00;;;;;;;19.20;87.14;100073.94;5051722;28;20025;-77
2023/08/18 08:20:18;;;;;;;0.00;0.00;;;;;;;19.24;86.74;100069.34;5021627;28;20506;-76
2023/08/18 08:22:48;;;;;;;0.00;0.00;;;;;;;19.29;86.67;100068.34;5013537;28;20120;-78
2023/08/18 08:25:15;;;;;;;0.00;0.00;;;;;;;19.35;85.97;100078.94;5047460;28;20025;-78
2023/08/18 08:27:40;;;;;;;0.00;0.00;;;;;;;19.39;86.07;100076.31;5016158;28;20064;-76
2023/08/18 08:30:09;;;;;;;0.00;0.00;;;;;;;19.41;86.09;100074.00;5062441;28;20048;-77
2023/08/18 08:32:34;;;;;;;0.00;0.00;;;;;;;19.32;85.90;100071.28;5038578;28;20032;-79
2023/08/18 08:35:00;;;;;;;0.00;0.00;;;;;;;19.26;86.39;100080.94;5055214;28;20029;-77
2023/08/18 08:37:25;;;;;;;0.00;0.00;;;;;;;19.14;86.95;100070.56;5053648;28;20032;-76
2023/08/18 08:39:51;;;;;;;0.00;0.00;;;;;;;19.13;87.44;100071.69;5056358;28;20031;-77
2023/08/18 08:42:16;;;;;;;0.00;0.00;;;;;;;19.09;87.31;100067.16;5072204;28;20045;-76
2023/08/18 08:44:42;;;;;;;0.00;0.00;;;;;;;19.04;87.30;100065.38;5065832;28;20548;-77
2023/08/18 08:47:08;;;;;;;0.00;0.00;;;;;;;19.05;87.78;100068.97;5001357;28;20025;-78
2023/08/18 08:49:35;;;;;;;0.00;0.00;;;;;;;19.02;87.85;100062.13;5062601;28;20063;-77
2023/08/18 08:52:13;;;;;;;0.00;0.00;;;;;;;19.06;87.80;100067.81;5035821;28;20571;-78
2023/08/18 08:54:45;;;;;;;0.00;0.00;;;;;;;19.04;87.71;100070.09;5055160;28;20022;-79
2023/08/18 08:57:12;;;;;;;0.00;0.00;;;;;;;19.00;88.34;100062.44;5017682;28;20036;-79
2023/08/18 08:59:38;;;;;;;0.00;0.00;;;;;;;18.98;88.23;100053.66;5033118;28;20052;-80
2023/08/18 09:02:03;;;;;;;0.00;0.00;;;;;;;19.10;87.55;100046.59;5019418;28;20059;-79
2023/08/18 09:04:29;;;;;;;0.00;0.00;;;;;;;19.24;87.36;100036.09;5067603;28;20037;-79
2023/08/18 09:06:55;;;;;;;0.00;0.00;;;;;;;19.40;86.85;100044.66;5051703;28;20043;-78
2023/08/18 09:09:20;;;;;;;0.00;0.00;;;;;;;19.56;86.05;100030.22;5049435;28;20029;-78
2023/08/18 09:11:47;;;;;;;0.00;0.00;;;;;;;19.78;85.16;100016.03;5036810;28;20037;-79
2023/08/18 09:14:17;;;;;;;0.00;0.00;;;;;;;20.05;84.08;100024.97;5035001;28;20425;-80
2023/08/18 09:16:44;;;;;;;0.00;0.00;;;;;;;20.24;83.39;100018.94;5053778;28;20032;-78
2023/08/18 09:19:14;;;;;;;0.00;0.00;;;;;;;20.39;82.72;100029.38;5067623;28;20024;-78
2023/08/18 09:21:40;;;;;;;0.00;0.00;;;;;;;20.47;82.13;100024.06;5053802;28;20397;-79
2023/08/18 09:24:09;;;;;;;0.00;0.00;;;;;;;20.35;82.02;100028.44;5042512;28;20040;-80
2023/08/18 09:26:35;;;;;;;0.00;0.00;;;;;;;20.19;82.28;100041.34;5042217;28;20021;-77
2023/08/18 09:29:02;;;;;;;0.00;0.00;;;;;;;19.97;82.71;100021.09;5035957;28;20037;-78
2023/08/18 09:31:29;;;;;;;0.00;0.00;;;;;;;19.90;83.34;100017.25;5068770;28;20111;-78
2023/08/18 09:33:54;;;;;;;0.00;0.00;;;;;;;19.87;83.64;100029.84;5051459;28;20106;-79
2023/08/18 09:36:20;;;;;;;0.00;0.00;;;;;;;19.81;83.70;100020.91;5059350;28;20072;-76
2023/08/18 09:38:46;;;;;;;0.00;0.00;;;;;;;19.82;83.89;100027.28;5056796;28;20037;-77
2023/08/18 09:41:12;;;;;;;0.00;0.00;;;;;;;19.89;84.11;100041.44;5042075;28;20029;-78
2023/08/18 09:43:43;;;;;;;0.00;0.00;;;;;;;19.89;84.17;100038.66;5042117;28;20131;-77
2023/08/18 09:46:13;;;;;;;0.00;0.00;;;;;;;19.81;84.39;100031.19;5086910;28;20111;-78
2023/08/18 09:48:40;;;;;;;0.00;0.00;;;;;;;19.87;84.37;100035.38;5060998;28;20097;-77
2023/08/18 09:51:08;;;;;;;0.00;0.00;;;;;;;20.01;84.08;100016.50;5051804;28;20403;-76
2023/08/18 09:53:37;;;;;;;0.00;0.00;;;;;;;20.19;83.27;100041.34;5064185;28;20495;-78
2023/08/18 09:56:06;;;;;;;0.00;0.00;;;;;;;20.07;83.18;100014.34;5079365;28;20067;-77
2023/08/18 09:58:54;;;;;;;0.00;0.00;;;;;;;20.21;83.84;100028.75;5059992;28;20029;-78
2023/08/18 10:01:21;;;;;;;0.00;0.00;;;;;;;20.30;82.99;100020.34;5058688;28;20039;-78
2023/08/18 10:03:48;;;;;;;0.00;0.00;;;;;;;20.39;83.06;100012.72;5077227;28;20119;-78
2023/08/18 10:06:16;;;;;;;0.00;0.00;;;;;;;20.56;82.56;100016.50;5059852;28;20054;-76
2023/08/18 10:08:42;;;;;;;0.00;0.00;;;;;;;20.62;81.88;100017.06;5070755;28;20494;-75
2023/08/18 10:11:09;;;;;;;0.00;0.00;;;;;;;20.52;81.56;100015.53;5049789;28;20025;-78
2023/08/18 10:13:37;;;;;;;0.00;0.00;;;;;;;20.53;81.93;100011.59;5043474;28;20024;-78
2023/08/18 10:16:04;;;;;;;0.00;0.00;;;;;;;20.61;81.90;100004.34;5055032;28;20063;-80
2023/08/18 10:18:30;;;;;;;0.00;0.00;;;;;;;20.81;81.11;100009.03;5048664;28;20028;-78
2023/08/18 10:20:56;;;;;;;0.00;0.00;;;;;;;20.85;80.86;99996.06;5039659;28;20625;-77
2023/08/18 10:23:29;;;;;;;0.00;0.00;;;;;;;20.93;80.23;100002.66;5072459;28;20086;-77
2023/08/18 10:25:54;;;;;;;0.00;0.00;;;;;;;21.18;79.97;100009.03;5081326;28;20043;-74
2023/08/18 10:28:22;;;;;;;0.00;0.00;;;;;;;21.29;79.38;100003.84;5066819;28;20107;-76
2023/08/18 10:31:08;;;;;;;0.00;0.00;;;;;;;21.22;78.60;100004.41;5072675;28;20111;-78
2023/08/18 10:33:43;;;;;;;0.00;0.00;;;;;;;21.12;78.95;100004.06;5074076;28;20073;-80
2023/08/18 10:36:12;;;;;;;0.00;0.00;;;;;;;20.98;79.49;100010.75;5054339;28;20052;-78
2023/08/18 10:38:41;;;;;;;0.00;0.00;;;;;;;20.96;79.59;99999.19;5052731;28;20028;-80
2023/08/18 10:41:07;;;;;;;0.00;0.00;;;;;;;21.19;79.67;99994.00;5054579;28;20109;-79
2023/08/18 10:43:47;;;;;;;0.00;0.00;;;;;;;21.47;79.12;99995.25;5034169;28;20496;-78
2023/08/18 10:46:13;;;;;;;0.00;0.00;;;;;;;21.67;78.12;99997.09;5019716;28;20116;-78
2023/08/18 10:48:38;;;;;;;0.00;0.00;;;;;;;21.78;77.59;99986.25;5061327;28;20115;-76
2023/08/18 10:51:04;;;;;;;0.00;0.00;;;;;;;22.03;77.25;99991.72;5052152;28;20407;-79
2023/08/18 10:53:34;;;;;;;0.00;0.00;;;;;;;22.21;76.35;99981.91;5017175;28;20025;-79
2023/08/18 10:56:00;;;;;;;0.00;0.00;;;;;;;22.47;75.54;99980.63;5008634;28;20034;-79
2023/08/18 10:58:25;;;;;;;0.00;0.00;;;;;;;22.51;74.71;99983.53;5029180;28;20017;-80
2023/08/18 11:00:51;;;;;;;0.00;0.00;;;;;;;22.61;74.70;99978.22;5034228;28;20093;-79
2023/08/18 11:03:18;;;;;;;0.00;0.00;;;;;;;22.84;74.01;99964.47;5028168;28;20040;-79
2023/08/18 11:05:43;;;;;;;0.00;0.00;;;;;;;23.31;73.33;99960.03;5059782;28;20025;-78
2023/08/18 11:08:09;;;;;;;0.00;0.00;;;;;;;23.64;71.59;99950.38;5017393;28;20123;-80
2023/08/18 11:10:38;;;;;;;0.00;0.00;;;;;;;23.81;71.25;99948.31;5033372;28;20479;-79
2023/08/18 11:13:04;;;;;;;0.00;0.00;;;;;;;23.90;70.32;99959.28;5049531;28;20036;-77
2023/08/18 11:15:30;;;;;;;0.00;0.00;;;;;;;23.81;69.96;99957.50;5035212;28;20024;-78
2023/08/18 11:17:55;;;;;;;0.00;0.00;;;;;;;23.65;70.52;99962.34;5068113;28;20031;-78
2023/08/18 11:20:22;;;;;;;0.00;0.00;;;;;;;23.57;70.54;99954.97;5018359;28;20028;-80
2023/08/18 11:22:54;;;;;;;0.00;0.00;;;;;;;23.78;70.77;99971.38;5043507;28;20033;-79
2023/08/18 11:25:22;;;;;;;0.00;0.00;;;;;;;24.02;70.30;99978.66;5032435;28;20037;-82